Fort Smith, AR

5:41 PM CDT on March 24, 2017 (GMT -0500)
LCEM - Arkoma Elem. School | | Change Station

Elev 597 ft 35.35 °N, 94.44 °W | Updated 29 seconds ago

Light Rain
Light Rain
61.9 °F
Feels Like 61.9 °F
N
2.9
Wind Variable Wind from NE
Gusts 6.0 mph

Today
High -- | Low -- °F
--% Chance of Precip.
Yesterday
High -- | Low -- °F
Precip. -- in
Pressure 29.79 in
Visibility 10.0 miles
Clouds Few 2800 ft
Mostly Cloudy 7000 ft
Overcast 8500 ft
Dew Point 61 °F
Humidity 98%
Rainfall 0.70 in
Snow Depth Not available.
7:15 AM 7:32 PM
Waning Crescent, 12% visible
SPECI KFSM 242227Z 10005KT 10SM -RA FEW028 BKN070 OVC085 17/15 A2979 RMK AO2 LTG DSNT SW-NW PRESFR P0007 T01720150
Pressure 29.79 in
Visibility 10.0 miles
Clouds Few 2800 ft
Mostly Cloudy 7000 ft
Overcast 8500 ft
Dew Point 61 °F
Humidity 98%
Rainfall 0.70 in
Snow Depth Not available.
7:15 AM 7:32 PM
Waning Crescent, 12% visible
SPECI KFSM 242227Z 10005KT 10SM -RA FEW028 BKN070 OVC085 17/15 A2979 RMK AO2 LTG DSNT SW-NW PRESFR P0007 T01720150

Get Severe Weather Alerts

Thanks for signing up!

Be on the lookout for a verification email in your inbox.

You'll start receiving the daily forecast at 8 AM.

×

10-Day Weather Forecast

Almanac

Astronomy

Mar. 24, 2017 Rise Set
Actual Time
Civil Twilight
Nautical Twilight
Astronomical Twilight
Moon
Length of Visible Light
Length of Day
Tomorrow will be .
, % of the Moon is Illuminated

Today's Extremes

State Highs State Lows

Community

WunderPhotos

Upload Photos

1,962,540 photos uploaded!

WunderBlog® & News

Nearby

Air Quality

  Air Quality AQ Index Pollutant
Not available.

Snow Depth

Station Depth Elevation

Earthquake Activity

City Distance Mag. Time & Date
Minimum magnitude displayed is 2.5.

Earthquake Activity

City Distance Mag. Time & Date
Minimum magnitude displayed is 2.5.

Coastal Water Temperatures

Place Temperature

Stations

Nearby Weather Stations

Station Location Temp. Windchill Dew Point Humidity Wind Precip. Elev Updated Type
                   

Watches & Warnings

There are currently no watches in effect.